Search for airport 
image banner adimage banner adimage banner ad
image banner ad

KLAS - Mc Carran Intl

Located in Las Vegas, United States

ICAO - LAS, IATA - LAS

Data provided by Airmate  

General information

Coordinates: N36°4'48" W115°9'8"
Elevation is 2181 feet MSL.
Magnetic variation is 11° East
View others Airports in Nevada

Operational data

Special qualification required
Current time UTC:
Current local time:
Weather
METAR: KLAS 130056Z 11007KT 10SM FEW250 38/M11 A2977 RMK AO2 SLP053 T03831106
TAF: KLAS 122320Z 1300/1406 10007KT P6SM SKC FM130400 20006KT P6SM FEW250 FM131400 VRB05KT P6SM FEW250 FM132000 17010G18KT P6SM FEW250 FM132300 20014G24KT P6SM FEW250 FM140300 23010KT P6SM FEW250
View NOTAMs / SUP AIP / TFR affecting this airport [VIEW]
Communications frequencies: [VIEW]

Runways:

RWY identifierQFULength (ft)Width (ft)SurfaceLDA (ft)
01R25°9771150CONC8782
19L205°9771150CONC8803
01L25°8988150CONC8401
19R205°8988150CONC8400
08L90°14515150CONC11960
26R270°14515150CONC12639
08R90°10526150CONC10525
26L270°10526150CONC10525

Airport contact information

Address: Las Vegas United States

Satellite view of KLAS